Time;durP1;ratioP1;P1;durP2;ratioP2;P2;SDS_P1;SDS_P2;PMS_P1;PMS_P2;Temp;Humidity;BMP_temperature;BMP_pressure;BME280_temperature;BME280_humidity;BME280_pressure;Samples;Min_cycle;Max_cycle;Signal;HPM_P1;HPM_P2
2022/07/28 00:01:34;;;;;;;3.50;1.10;;;21.00;1.00;;;;;;5092381;28;20444;-68
2022/07/28 00:04:02;;;;;;;1.20;1.10;;;21.30;1.00;;;;;;5092281;28;20484;-70
2022/07/28 00:06:29;;;;;;;1.80;1.20;;;21.30;1.00;;;;;;5104413;28;20448;-70
2022/07/28 00:08:56;;;;;;;1.83;1.13;;;21.30;1.00;;;;;;5091679;28;20459;-70
2022/07/28 00:11:23;;;;;;;1.27;1.00;;;21.10;1.00;;;;;;5092271;28;20463;-70
2022/07/28 00:13:50;;;;;;;1.33;1.00;;;21.10;1.00;;;;;;5091385;28;20483;-70
2022/07/28 00:16:16;;;;;;;1.43;0.80;;;21.10;1.00;;;;;;5091960;28;20448;-70
2022/07/28 00:18:44;;;;;;;1.40;1.10;;;21.30;1.00;;;;;;5091623;28;20544;-71
2022/07/28 00:21:12;;;;;;;1.40;1.30;;;21.20;1.00;;;;;;5092354;28;20987;-71
2022/07/28 00:23:39;;;;;;;1.77;1.40;;;21.10;1.00;;;;;;5090965;28;20540;-70
2022/07/28 00:26:07;;;;;;;2.47;1.10;;;21.00;1.00;;;;;;5092154;28;20441;-70
2022/07/28 00:28:34;;;;;;;1.60;0.97;;;20.90;1.00;;;;;;5090838;28;20445;-69
2022/07/28 00:31:01;;;;;;;1.63;1.13;;;20.90;1.00;;;;;;5091915;28;20453;-70
2022/07/28 00:33:28;;;;;;;1.87;1.20;;;20.90;1.00;;;;;;5090935;28;20489;-70
2022/07/28 00:35:54;;;;;;;1.20;1.10;;;20.90;1.00;;;;;;5094568;28;20808;-70
2022/07/28 00:38:23;;;;;;;1.50;1.33;;;20.80;1.00;;;;;;5083533;28;20966;-70
2022/07/28 00:43:34;;;;;;;1.87;1.60;;;20.70;1.00;;;;;;5090745;28;20440;-68
2022/07/28 00:46:01;;;;;;;1.30;1.20;;;20.70;1.00;;;;;;5091744;28;20472;-70
2022/07/28 00:48:28;;;;;;;1.37;1.13;;;20.70;1.00;;;;;;5091219;28;20446;-70
2022/07/28 00:50:54;;;;;;;3.83;1.30;;;20.70;1.00;;;;;;5078597;28;20536;-70
2022/07/28 00:53:23;;;;;;;1.60;1.30;;;20.60;1.00;;;;;;5091135;28;20490;-70
2022/07/28 00:55:50;;;;;;;1.93;1.40;;;20.80;1.00;;;;;;5090977;28;20532;-70
2022/07/28 00:58:17;;;;;;;1.60;1.13;;;20.80;1.00;;;;;;5091225;28;20540;-70
2022/07/28 01:00:44;;;;;;;1.77;1.27;;;20.70;1.00;;;;;;5091004;28;20441;-70
2022/07/28 01:03:11;;;;;;;2.60;1.60;;;20.40;1.00;;;;;;5090178;28;20540;-70
2022/07/28 01:05:48;;;;;;;2.20;1.33;;;20.30;1.00;;;;;;5092090;28;20610;-70
2022/07/28 01:08:26;;;;;;;2.37;1.07;;;20.10;1.00;;;;;;5091441;28;20445;-70
2022/07/28 01:11:01;;;;;;;1.53;1.23;;;20.20;1.00;;;;;;5090820;28;20704;-70
2022/07/28 01:13:34;;;;;;;1.53;1.23;;;20.10;1.00;;;;;;5091074;28;20575;-70
2022/07/28 01:16:04;;;;;;;1.83;1.30;;;20.20;1.00;;;;;;5085196;28;20448;-70
2022/07/28 01:18:36;;;;;;;1.67;1.53;;;20.20;1.00;;;;;;5091077;28;20535;-70
2022/07/28 01:21:08;;;;;;;1.40;1.17;;;20.00;1.00;;;;;;5090767;28;20449;-71
2022/07/28 01:23:58;;;;;;;1.60;1.50;;;19.80;1.00;;;;;;5090369;28;20440;-70
2022/07/28 01:26:48;;;;;;;5.10;1.33;;;19.80;1.00;;;;;;5091099;28;20445;-70
2022/07/28 01:29:33;;;;;;;2.23;1.03;;;19.80;1.00;;;;;;5091393;28;20447;-70
2022/07/28 01:32:05;;;;;;;1.90;1.47;;;19.40;1.00;;;;;;5097039;28;20470;-71
2022/07/28 01:34:36;;;;;;;3.13;1.23;;;19.70;1.00;;;;;;5108661;28;20535;-70
2022/07/28 01:37:09;;;;;;;4.10;1.43;;;19.50;1.00;;;;;;5104357;28;20521;-71
2022/07/28 01:39:39;;;;;;;1.60;1.40;;;19.20;1.00;;;;;;5107085;28;20449;-68
2022/07/28 01:42:07;;;;;;;1.93;1.23;;;19.10;1.00;;;;;;5105067;28;20500;-70
2022/07/28 01:44:39;;;;;;;1.23;1.13;;;19.00;1.00;;;;;;5104147;28;20436;-67
2022/07/28 01:47:08;;;;;;;1.50;1.10;;;18.90;1.00;;;;;;5102782;28;20508;-70
2022/07/28 01:49:36;;;;;;;1.03;1.00;;;18.80;1.00;;;;;;5096186;28;20567;-68
2022/07/28 01:52:07;;;;;;;2.50;1.47;;;19.00;1.00;;;;;;5090818;28;20553;-70
2022/07/28 01:54:37;;;;;;;2.03;1.47;;;19.00;1.00;;;;;;5090566;28;20449;-68
2022/07/28 01:57:05;;;;;;;1.27;1.17;;;19.10;1.00;;;;;;5090554;28;20456;-70
2022/07/28 01:59:33;;;;;;;2.07;1.87;;;18.60;1.00;;;;;;5090536;28;20444;-71
2022/07/28 02:02:02;;;;;;;1.53;1.43;;;18.60;5.90;;;;;;5089152;28;20441;-70
2022/07/28 02:04:33;;;;;;;1.40;1.30;;;18.50;15.70;;;;;;5090467;28;20952;-71
2022/07/28 02:07:02;;;;;;;1.30;1.20;;;18.50;18.90;;;;;;5093352;28;20480;-71
2022/07/28 02:09:30;;;;;;;1.60;1.40;;;18.70;13.60;;;;;;5090572;28;20445;-71
2022/07/28 02:11:58;;;;;;;1.67;1.50;;;;;;;;;;5089339;28;20445;-71
2022/07/28 02:14:26;;;;;;;1.93;1.70;;;;;;;;;;5090732;28;20849;-70
2022/07/28 02:16:54;;;;;;;1.40;1.30;;;;;;;;;;5093653;28;20515;-71
2022/07/28 02:19:22;;;;;;;1.23;1.13;;;;;;;;;;5094271;28;20449;-70
2022/07/28 02:21:52;;;;;;;1.87;1.37;;;;;;;;;;5093578;28;20444;-70
2022/07/28 02:24:21;;;;;;;1.70;1.13;;;;;;;;;;5094249;28;20457;-70
2022/07/28 02:26:50;;;;;;;2.03;1.67;;;;;;;;;;5094033;28;20460;-72
2022/07/28 02:29:19;;;;;;;1.67;1.30;;;;;;;;;;5093912;28;20441;-70
2022/07/28 02:31:50;;;;;;;1.60;1.33;;;;;;;;;;5093133;28;20459;-70
2022/07/28 02:34:17;;;;;;;1.93;1.43;;;;;;;;;;5094104;28;20983;-70
2022/07/28 02:36:48;;;;;;;2.43;1.67;;;;;;;;;;5094413;28;20535;-71
2022/07/28 02:39:19;;;;;;;6.17;1.83;;;;;;;;;;5094374;28;20484;-70
2022/07/28 02:41:48;;;;;;;1.10;1.00;;;;;;;;;;5092815;28;20463;-69
2022/07/28 02:44:17;;;;;;;2.47;1.40;;;;;;;;;;5093686;28;20544;-68
2022/07/28 02:46:45;;;;;;;1.47;1.37;;;;;;;;;;5093477;28;20441;-70
2022/07/28 02:49:14;;;;;;;1.33;1.10;;;;;;;;;;5093880;28;21032;-70
2022/07/28 02:51:42;;;;;;;1.50;1.40;;;;;;;;;;5092847;28;20443;-70
2022/07/28 02:54:10;;;;;;;2.77;1.60;;;;;;;;;;5093586;28;20508;-70
2022/07/28 02:56:40;;;;;;;1.53;1.40;;;;;;;;;;5093179;28;20455;-70
2022/07/28 02:59:08;;;;;;;2.07;1.70;;;;;;;;;;5093656;28;20441;-70
2022/07/28 03:01:35;;;;;;;3.80;1.30;;;;;;;;;;5092480;28;20540;-70
2022/07/28 03:04:02;;;;;;;1.37;1.27;;;;;;;;;;5093153;28;20459;-70
2022/07/28 03:06:30;;;;;;;1.90;1.70;;;;;;;;;;5105247;28;20466;-72
2022/07/28 03:08:57;;;;;;;1.60;1.10;;;;;;;;;;5093216;28;21006;-72
2022/07/28 03:11:26;;;;;;;1.47;1.37;;;;;;;;;;5093467;28;20449;-72
2022/07/28 03:13:54;;;;;;;1.93;1.50;;;;;;;;;;5093385;28;20473;-71
2022/07/28 03:16:21;;;;;;;1.33;1.23;;;;;;;;;;5093638;28;20463;-70
2022/07/28 03:18:48;;;;;;;1.33;1.23;;;;;;;;;;5093073;28;20456;-69
2022/07/28 03:21:16;;;;;;;1.87;1.67;;;;;;;;;;5092848;28;20638;-69
2022/07/28 03:23:43;;;;;;;2.17;1.97;;;;;;;;;;5082980;28;20544;-71
2022/07/28 03:26:13;;;;;;;2.00;1.77;;;;;;;;;;5091975;28;20528;-71
2022/07/28 03:28:41;;;;;;;1.33;1.20;;;;;;;;;;5092764;28;20463;-71
2022/07/28 03:31:10;;;;;;;2.30;1.50;;;;;;;;;;5092885;28;20977;-70
2022/07/28 03:33:38;;;;;;;2.23;1.37;;;;;;;;;;5091423;28;20893;-71
2022/07/28 03:36:07;;;;;;;5.10;1.67;;;;;;;;;;5092934;28;20493;-70
2022/07/28 03:38:36;;;;;;;1.43;1.33;;;;;;;;;;5092542;28;20513;-68
2022/07/28 03:41:03;;;;;;;2.50;1.53;;;;;;;;;;5093353;28;20543;-71
2022/07/28 03:43:32;;;;;;;1.90;1.60;;;;;;;;;;5092377;28;20453;-71
2022/07/28 03:45:59;;;;;;;3.57;1.60;;;;;;;;;;5092678;28;20522;-70
2022/07/28 03:48:30;;;;;;;2.50;1.60;;;;;;;;;;5092702;28;20451;-70
2022/07/28 03:50:58;;;;;;;2.10;1.60;;;;;;;;;;5092224;28;20451;-70
2022/07/28 03:53:27;;;;;;;1.67;1.37;;;;;;;;;;5091677;28;20497;-70
2022/07/28 03:55:54;;;;;;;2.53;1.30;;;;;;;;;;5081085;28;20730;-71
2022/07/28 03:58:22;;;;;;;1.53;1.40;;;;;;;;;;5093002;28;20457;-70
2022/07/28 04:00:49;;;;;;;2.20;1.70;;;;;;;;;;5092686;28;20455;-70
2022/07/28 04:03:17;;;;;;;2.50;1.80;;;;;;;;;;5105345;28;20453;-70
2022/07/28 04:05:46;;;;;;;1.80;1.53;;;;;;;;;;5105555;28;20440;-71
2022/07/28 04:08:13;;;;;;;1.70;1.50;;;;;;;;;;5103014;27;20445;-72
2022/07/28 04:10:40;;;;;;;2.03;1.50;;;;;;;;;;5097723;28;20940;-68
2022/07/28 04:13:07;;;;;;;1.63;1.53;;;;;;;;;;5101759;28;20506;-69
2022/07/28 04:15:35;;;;;;;2.90;1.50;;;;;;;;;;5094489;28;20441;-70
2022/07/28 04:18:02;;;;;;;1.60;1.50;;;;;;;;;;5093696;28;20963;-68
2022/07/28 04:20:29;;;;;;;1.77;1.20;;;;;;;;;;5092533;28;20531;-69
2022/07/28 04:22:58;;;;;;;1.53;1.30;;;;;;;;;;5091494;28;20960;-68
2022/07/28 04:25:25;;;;;;;1.43;1.27;;;;;;;;;;5092362;28;20552;-68
2022/07/28 04:27:53;;;;;;;4.00;1.20;;;;;;;;;;5091626;28;20449;-71
2022/07/28 04:30:23;;;;;;;1.70;1.27;;;;;;;;;;5092316;28;20445;-70
2022/07/28 04:32:51;;;;;;;2.90;1.20;;;;;;;;;;5091890;28;20498;-76
2022/07/28 04:35:19;;;;;;;3.27;1.57;;;;;;;;;;5095981;28;20976;-70
2022/07/28 04:37:47;;;;;;;2.30;1.33;;;;;;;;;;5091841;28;20506;-68
2022/07/28 04:40:16;;;;;;;3.13;1.40;;;;;;;;;;5091944;28;20451;-68
2022/07/28 04:42:43;;;;;;;2.70;1.63;;;;;;;;;;5091306;28;20455;-67
2022/07/28 04:45:11;;;;;;;3.50;1.20;;;;;;;;;;5091571;28;20548;-67
2022/07/28 04:47:40;;;;;;;1.47;1.27;;;;;;;;;;5091292;28;20919;-71
2022/07/28 04:50:08;;;;;;;1.23;1.13;;;;;;;;;;5091619;28;20440;-71
2022/07/28 04:52:35;;;;;;;1.27;1.17;;;;;;;;;;5079012;28;20528;-70
2022/07/28 04:55:02;;;;;;;4.27;1.97;;;;;;;;;;5091557;28;20473;-74
2022/07/28 04:57:31;;;;;;;1.37;1.27;;;;;;;;;;5091822;28;20441;-70
2022/07/28 04:59:58;;;;;;;2.07;1.30;;;;;;;;;;5086404;28;20779;-70
2022/07/28 05:02:26;;;;;;;1.40;1.10;;;;;;;;;;5091685;28;20437;-72
2022/07/28 05:04:53;;;;;;;1.40;1.23;;;;;;;;;;5092002;28;21061;-70
2022/07/28 05:07:20;;;;;;;2.17;1.20;;;;;;;;;;5102641;28;20791;-70
2022/07/28 05:09:47;;;;;;;1.20;1.10;;;;;;;;;;5090806;28;20440;-71
2022/07/28 05:12:15;;;;;;;1.20;1.10;;;;;;;;;;5091560;28;20533;-71
2022/07/28 05:14:43;;;;;;;1.10;1.00;;;;;;;;;;5090761;28;20464;-71
2022/07/28 05:17:10;;;;;;;1.57;1.10;;;;;;;;;;5091324;28;20445;-71
2022/07/28 05:19:37;;;;;;;1.40;1.30;;;;;;;;;;5090610;28;20445;-71
2022/07/28 05:22:05;;;;;;;1.70;1.60;;;;;;;;;;5091481;28;20524;-70
2022/07/28 05:24:32;;;;;;;3.30;1.60;;;;;;;;;;5091558;28;20532;-71
2022/07/28 05:26:59;;;;;;;3.10;1.30;;;;;;;;;;5091257;28;20478;-71
2022/07/28 05:29:26;;;;;;;1.90;1.60;;;;;;;;;;5090571;28;20494;-71
2022/07/28 05:31:55;;;;;;;2.53;1.70;;;;;;;;;;5091344;28;20678;-71
2022/07/28 05:34:22;;;;;;;2.10;1.50;;;;;;;;;;5090881;28;20496;-71
2022/07/28 05:36:50;;;;;;;3.13;1.70;;;;;;;;;;5094009;28;20476;-70
2022/07/28 05:39:17;;;;;;;1.67;1.57;;;;;;;;;;5090714;28;20919;-70
2022/07/28 05:41:44;;;;;;;1.87;1.67;;;;;;;;;;5091371;28;20441;-70
2022/07/28 05:44:11;;;;;;;1.90;1.70;;;;;;;;;;5091396;28;20806;-68
2022/07/28 05:46:38;;;;;;;1.40;1.30;;;;;;;;;;5091415;28;20801;-70
2022/07/28 05:49:07;;;;;;;3.17;2.13;;;;;;;;;;5090848;28;20878;-70
2022/07/28 05:51:35;;;;;;;1.77;1.67;;;;;;;;;;5093174;28;20480;-68
2022/07/28 05:54:02;;;;;;;2.30;2.07;;;;;;;;;;5083283;28;20477;-71
2022/07/28 05:56:29;;;;;;;1.97;1.87;;;;;;;;;;5102220;28;20464;-70
2022/07/28 05:58:56;;;;;;;1.67;1.57;;;;;;;;;;5106916;28;20488;-68
2022/07/28 06:01:23;;;;;;;3.70;1.87;;;;;;;;;;5102727;28;20447;-71
2022/07/28 06:03:51;;;;;;;2.60;1.43;;;;;;;;;;5103371;28;20586;-71
2022/07/28 06:06:20;;;;;;;5.23;1.73;;;;;;;;;;5112992;28;20439;-70
2022/07/28 06:08:48;;;;;;;1.70;1.60;;;;;;;;;;5097571;28;20466;-71
2022/07/28 06:11:15;;;;;;;2.13;1.60;;;;;;;;;;5095177;28;20440;-71
2022/07/28 06:13:45;;;;;;;1.77;1.40;;;;;;;;;;5091450;28;20503;-71
2022/07/28 06:16:12;;;;;;;4.03;3.00;;;;;;;;;;5090647;28;20523;-71
2022/07/28 06:18:39;;;;;;;4.57;1.73;;;;;;;;;;5089881;28;20451;-71
2022/07/28 06:21:06;;;;;;;1.80;1.40;;;;;;;;;;5090690;28;20798;-71
2022/07/28 06:23:35;;;;;;;2.60;1.60;;;;;;;;;;5091102;28;20437;-71
2022/07/28 06:26:02;;;;;;;2.07;1.63;;;;;;;;;;5090627;28;20528;-71
2022/07/28 06:28:29;;;;;;;7.90;2.47;;;;;;;;;;5090446;28;20452;-71
2022/07/28 06:30:56;;;;;;;5.17;2.17;;;;;;;;;;5089868;28;20536;-70
2022/07/28 06:33:23;;;;;;;6.30;2.03;;;;;;;;;;5090546;28;20456;-71
2022/07/28 06:35:50;;;;;;;3.20;1.93;;;;;;;;;;5093085;28;20567;-71
2022/07/28 06:38:19;;;;;;;2.40;1.83;;;;;;;;;;5090314;28;20432;-71
2022/07/28 06:40:47;;;;;;;1.73;1.63;;;;;;;;;;5090048;28;20441;-71
2022/07/28 06:43:14;;;;;;;2.40;2.20;;;18.70;15.70;;;;;;5090615;28;20794;-71
2022/07/28 06:45:43;;;;;;;3.93;2.83;;;20.70;54.90;;;;;;5089931;28;20441;-71
2022/07/28 06:48:12;;;;;;;2.70;1.80;;;20.70;45.20;;;;;;5090050;28;20530;-71
2022/07/28 06:50:39;;;;;;;2.40;2.20;;;20.60;46.50;;;;;;5090092;28;20449;-71
2022/07/28 06:53:06;;;;;;;4.20;2.87;;;20.70;50.00;;;;;;5090535;28;20794;-71
2022/07/28 06:55:33;;;;;;;2.17;1.97;;;;;;;;;;5090328;28;20823;-71
2022/07/28 06:58:02;;;;;;;3.10;2.27;;;;;;;;;;5090009;28;20449;-72
2022/07/28 07:00:29;;;;;;;1.93;1.83;;;;;;;;;;5091117;28;20476;-71
2022/07/28 07:02:56;;;;;;;2.63;2.10;;;;;;;;;;5093363;28;21025;-71
2022/07/28 07:05:24;;;;;;;3.40;2.73;;;;;;;;;;5098894;28;20448;-71
2022/07/28 07:07:51;;;;;;;2.77;2.40;;;;;;;;;;5099611;28;20976;-71
2022/07/28 07:10:18;;;;;;;2.70;2.50;;;;;;;;;;5093963;28;20519;-71
2022/07/28 07:12:46;;;;;;;4.67;2.63;;;;;;;;;;5094695;28;20441;-70
2022/07/28 07:15:14;;;;;;;3.20;2.30;;;;;;;;;;5097198;28;20510;-73
2022/07/28 07:17:41;;;;;;;5.27;2.70;;;;;;;;;;5097880;28;20519;-70
2022/07/28 07:20:09;;;;;;;3.10;2.87;;;;;;;;;;5102963;28;20767;-72
2022/07/28 07:22:42;;;;;;;2.67;2.47;;;;;;;;;;5094169;28;20793;-71
2022/07/28 07:25:10;;;;;;;2.90;2.70;;;;;;;;;;5094502;28;20452;-71
2022/07/28 07:27:37;;;;;;;3.67;3.00;;;;;;;;;;5093513;28;20451;-70
2022/07/28 07:30:05;;;;;;;2.70;2.50;;;;;;;;;;5093989;28;20498;-70
2022/07/28 07:32:34;;;;;;;6.63;3.30;;;;;;;;;;5094275;28;20455;-71
2022/07/28 07:35:01;;;;;;;3.63;2.73;;;;;;;;;;5096465;28;20555;-71
2022/07/28 07:37:31;;;;;;;3.00;2.70;;;;;;;;;;5095127;28;20955;-70
2022/07/28 07:39:58;;;;;;;2.97;2.23;;;;;;;;;;5093262;28;20453;-71
2022/07/28 07:42:26;;;;;;;3.90;3.60;;;;;;;;;;5093700;28;20449;-71
2022/07/28 07:44:53;;;;;;;3.53;3.10;;;;;;;;;;5092808;28;20912;-71
2022/07/28 07:47:20;;;;;;;4.23;3.73;;;;;;;;;;5093915;28;20502;-71
2022/07/28 07:49:48;;;;;;;4.93;4.47;;;;;;;;;;5092950;28;20437;-71
2022/07/28 07:52:16;;;;;;;4.40;4.00;;;;;;;;;;5093349;28;20443;-71
2022/07/28 07:54:44;;;;;;;6.07;3.50;;;;;;;;;;5092766;28;20483;-71
2022/07/28 07:57:11;;;;;;;4.03;3.63;;;;;;;;;;5093543;28;20480;-71
2022/07/28 07:59:38;;;;;;;3.80;3.30;;;;;;;;;;5092665;28;20445;-71
2022/07/28 08:02:06;;;;;;;3.67;3.00;;;;;;;;;;5093569;28;20481;-70
2022/07/28 08:04:33;;;;;;;4.23;3.70;;;;;;;;;;5093775;28;20764;-71
2022/07/28 08:07:01;;;;;;;6.33;4.10;;;;;;;;;;5105360;28;20520;-71
2022/07/28 08:09:28;;;;;;;4.57;3.43;;;;;;;;;;5092952;28;20445;-71
2022/07/28 08:11:56;;;;;;;4.33;3.23;;;;;;;;;;5092554;28;20528;-71
2022/07/28 08:14:23;;;;;;;4.47;3.80;;;;;;;;;;5093051;28;20568;-72
2022/07/28 08:16:51;;;;;;;4.33;3.50;;;;;;;;;;5092669;28;20519;-72
2022/07/28 08:19:18;;;;;;;6.23;3.60;;;;;;;;;;5092861;28;20449;-71
2022/07/28 08:21:45;;;;;;;3.70;3.40;;;;;;;;;;5092851;28;20445;-72
2022/07/28 08:24:14;;;;;;;3.70;3.17;;;;;;;;;;5093460;28;20433;-72
2022/07/28 08:26:41;;;;;;;3.27;2.97;;;;;;;;;;5092485;28;20479;-72
2022/07/28 08:29:08;;;;;;;4.03;3.53;;;;;;;;;;5092615;28;20858;-72
2022/07/28 08:31:36;;;;;;;5.60;3.50;;;;;;;;;;5092425;28;20452;-72
2022/07/28 08:34:03;;;;;;;3.60;3.20;;;;;;;;;;5092939;28;20968;-70
2022/07/28 08:36:31;;;;;;;3.17;2.87;;;;;;;;;;5095839;28;20476;-70
2022/07/28 08:38:58;;;;;;;3.70;3.03;;;;;;;;;;5091644;28;20437;-70
2022/07/28 08:41:35;;;;;;;3.30;3.00;;;;;;;;;;5093059;28;20451;-70
2022/07/28 08:44:03;;;;;;;5.47;3.23;;;;;;;;;;5093105;28;20452;-70
2022/07/28 08:46:35;;;;;;;3.20;2.93;;;;;;;;;;5096247;28;20444;-70
2022/07/28 08:49:03;;;;;;;3.97;3.67;;;;;;;;;;5101732;28;20448;-73
2022/07/28 08:51:30;;;;;;;4.77;3.03;;;;;;;;;;5103629;28;20457;-73
2022/07/28 08:53:58;;;;;;;4.83;3.20;;;;;;;;;;5099820;28;20548;-71
2022/07/28 08:56:25;;;;;;;3.40;3.10;;;;;;;;;;5097034;28;20481;-71
2022/07/28 08:58:54;;;;;;;6.13;2.67;;;;;;;;;;5093371;28;20448;-71
2022/07/28 09:01:23;;;;;;;4.73;3.90;;;;;;;;;;5094394;28;20498;-70
2022/07/28 09:03:51;;;;;;;3.93;3.63;;;;;;;;;;5093325;28;20445;-70
2022/07/28 09:06:18;;;;;;;4.53;3.70;;;;;;;;;;5105475;28;20793;-70
2022/07/28 09:08:45;;;;;;;4.53;3.63;;;;;;;;;;5092883;28;20467;-70
2022/07/28 09:11:12;;;;;;;4.27;3.87;;;;;;;;;;5093673;28;20475;-70
2022/07/28 09:13:40;;;;;;;3.63;3.33;;;;;;;;;;5092877;28;20444;-70
2022/07/28 09:16:08;;;;;;;4.10;3.70;;;;;;;;;;5092666;28;20480;-71
2022/07/28 09:18:36;;;;;;;3.90;3.50;;;;;;;;;;5092203;28;20441;-71
2022/07/28 09:21:03;;;;;;;4.33;3.80;;;;;;;;;;5092688;28;20448;-71
2022/07/28 09:23:43;;;;;;;4.40;3.57;;;;;;;;;;5091979;28;20437;-71
2022/07/28 09:26:10;;;;;;;5.37;3.67;;;;;;;;;;5092400;28;20437;-71
2022/07/28 09:28:47;;;;;;;3.50;3.20;;;;;;;;;;5091405;28;20524;-70
2022/07/28 09:31:15;;;;;;;3.20;2.87;;;;;;;;;;5092091;28;20512;-71
2022/07/28 09:33:53;;;;;;;3.40;2.97;;;;;;;;;;5091241;28;20472;-71
2022/07/28 09:36:21;;;;;;;3.93;3.63;;;;;;;;;;5095311;28;20483;-71
2022/07/28 09:38:48;;;;;;;4.30;3.90;;;;;;;;;;5090687;28;20760;-71
2022/07/28 09:41:17;;;;;;;4.50;4.10;;;;;;;;;;5091990;28;20440;-71
2022/07/28 09:43:45;;;;;;;4.00;3.60;;;;;;;;;;5091294;28;20883;-71
2022/07/28 09:46:13;;;;;;;3.63;3.33;;;;;;;;;;5091356;28;20440;-71
2022/07/28 09:48:52;;;;;;;4.13;3.37;;;;;;;;;;5090783;28;20791;-71
2022/07/28 09:51:20;;;;;;;4.93;3.67;;;;;;;;;;5091641;28;20907;-71
2022/07/28 09:53:47;;;;;;;3.67;3.07;;;;;;;;;;5090914;28;20436;-71
2022/07/28 09:56:15;;;;;;;3.13;2.83;;;;;;;;;;5091977;28;20515;-71
2022/07/28 09:58:42;;;;;;;3.57;3.30;;;;;;;;;;5090365;28;20440;-71
2022/07/28 10:01:11;;;;;;;3.40;3.13;;;;;;;;;;5091465;28;20441;-71
2022/07/28 10:03:38;;;;;;;3.97;3.67;;;;;;;;;;5090822;28;20452;-71
2022/07/28 10:06:08;;;;;;;3.67;3.37;;;;;;;;;;5102413;28;20447;-71
2022/07/28 10:08:42;;;;;;;4.23;3.93;;;;;;;;;;5090853;28;20531;-70
2022/07/28 10:11:11;;;;;;;3.43;3.13;;;;;;;;;;5091595;28;20832;-71
2022/07/28 10:13:51;;;;;;;3.83;3.50;;;;;;;;;;5090955;28;20441;-71
2022/07/28 10:16:19;;;;;;;4.70;4.30;;;;;;;;;;5091476;28;20821;-71
2022/07/28 10:18:47;;;;;;;5.60;3.60;;;;;;;;;;5090771;28;20863;-71
2022/07/28 10:21:16;;;;;;;3.47;3.13;;;;;;;;;;5091497;28;20441;-72
2022/07/28 10:23:46;;;;;;;3.20;2.90;;;;;;;;;;5091363;28;20437;-72
2022/07/28 10:26:13;;;;;;;4.20;3.80;;;;;;;;;;5091413;28;20528;-72
2022/07/28 10:28:44;;;;;;;4.07;3.67;;;;;;;;;;5090295;28;20445;-72
2022/07/28 10:31:12;;;;;;;3.20;2.93;;;;;;;;;;5091177;28;20444;-71
2022/07/28 10:33:40;;;;;;;4.93;3.70;;;;;;;;;;5090740;28;20456;-71
2022/07/28 10:36:07;;;;;;;3.60;3.30;;;;;;;;;;5096106;28;20452;-72
2022/07/28 10:38:36;;;;;;;3.83;3.53;;;;;;;;;;5094312;28;20471;-70
2022/07/28 10:41:05;;;;;;;4.43;3.70;;;;;;;;;;5095355;28;20502;-71
2022/07/28 10:43:32;;;;;;;3.80;3.50;;;;;;;;;;5095016;28;20947;-70
2022/07/28 10:46:00;;;;;;;3.73;3.43;;;;;;;;;;5094968;28;20536;-71
2022/07/28 10:48:27;;;;;;;5.50;3.77;;;;;;;;;;5094728;28;20439;-71
2022/07/28 10:50:55;;;;;;;4.00;3.50;;;;;;;;;;5094570;28;20441;-72
2022/07/28 10:53:28;;;;;;;3.60;3.27;;;;;;;;;;5094603;28;20444;-71
2022/07/28 10:56:00;;;;;;;3.30;3.10;;;;;;;;;;5094235;28;20988;-72
2022/07/28 10:58:34;;;;;;;3.10;2.90;;;;;;;;;;5094297;28;20447;-71
2022/07/28 11:01:01;;;;;;;3.27;2.97;;;;;;;;;;5095127;28;20539;-72
2022/07/28 11:03:39;;;;;;;4.33;4.00;;;;;;;;;;5094293;28;20444;-71
2022/07/28 11:06:30;;;;;;;3.40;3.10;;;;;;;;;;5105688;28;20466;-72
2022/07/28 11:08:57;;;;;;;4.07;3.63;;;;;;;;;;5073946;28;20861;-72
2022/07/28 11:11:44;;;;;;;3.90;3.60;;;;;;;;;;5094341;28;20934;-72
2022/07/28 11:14:34;;;;;;;3.10;2.90;;;;;;;;;;5094647;28;20432;-72
2022/07/28 11:17:18;;;;;;;3.97;3.40;;;;;;;;;;5082750;28;20471;-72
2022/07/28 11:19:53;;;;;;;4.27;3.80;;;;;;;;;;5094031;28;20915;-72
2022/07/28 11:22:31;;;;;;;3.70;3.40;;;;;;;;;;5097493;28;20438;-73
2022/07/28 11:25:11;;;;;;;5.30;3.70;;;;;;;;;;5099574;28;20440;-72
2022/07/28 11:27:56;;;;;;;4.03;3.63;;;;;;;;;;5100779;28;20515;-73
2022/07/28 11:30:42;;;;;;;4.10;3.77;;;;;;;;;;5096712;28;21234;-71
2022/07/28 11:33:11;;;;;;;4.30;3.90;;;;;;;;;;5094749;28;20459;-71
2022/07/28 11:35:53;;;;;;;4.60;3.33;;;;;;;;;;5097060;28;21018;-72
2022/07/28 11:38:20;;;;;;;3.63;3.40;;;;;;;;;;5093881;28;20433;-71
2022/07/28 11:40:48;;;;;;;3.40;3.10;;;;;;;;;;5093812;28;20588;-72
2022/07/28 11:43:29;;;;;;;4.63;3.50;;;;;;;;;;5093903;28;20511;-72
2022/07/28 11:46:11;;;;;;;3.40;3.10;;;;;;;;;;5093357;28;20440;-71
2022/07/28 11:48:40;;;;;;;3.10;2.83;;;;;;;;;;5083432;28;20440;-72
2022/07/28 11:51:10;;;;;;;2.83;2.63;;;;;;;;;;5093926;28;20456;-72
2022/07/28 11:53:37;;;;;;;3.23;3.03;;;;;;;;;;5093317;28;20489;-72
2022/07/28 11:56:05;;;;;;;3.47;3.20;;;;;;;;;;5093849;28;20480;-72
2022/07/28 11:58:33;;;;;;;3.43;3.20;;;;;;;;;;5093368;28;20196;-72
2022/07/28 12:01:15;;;;;;;3.40;3.10;;;;;;;;;;5093536;28;20851;-72
2022/07/28 12:03:44;;;;;;;3.40;3.10;;;;;;;;;;5089999;28;20488;-71
2022/07/28 12:06:11;;;;;;;3.37;3.07;;;;;;;;;;5104831;28;20443;-71
2022/07/28 12:08:50;;;;;;;3.77;3.37;;;;;;;;;;5092656;28;20202;-71
2022/07/28 12:11:18;;;;;;;3.70;3.40;;;;;;;;;;5093350;28;20194;-72
2022/07/28 12:13:45;;;;;;;3.20;2.90;;;;;;;;;;5092911;28;20440;-71
2022/07/28 12:16:12;;;;;;;2.70;2.50;;;;;;;;;;5092673;28;20978;-71
2022/07/28 12:18:40;;;;;;;3.30;3.00;;;;;;;;;;5092389;28;20443;-72
2022/07/28 12:21:08;;;;;;;3.10;2.90;;;;;;;;;;5093158;28;20794;-72
2022/07/28 12:23:36;;;;;;;3.00;2.80;;;;;;;;;;5092578;28;20293;-72
2022/07/28 12:26:05;;;;;;;3.07;2.77;;;;;;;;;;5093181;28;20205;-72
2022/07/28 12:28:32;;;;;;;3.23;3.03;;;;;;;;;;5092808;28;20194;-72
2022/07/28 12:31:10;;;;;;;2.53;2.43;;;;;;;;;;5093136;28;20198;-71
2022/07/28 12:33:37;;;;;;;3.07;2.87;;;;;;;;;;5092406;28;20205;-71
2022/07/28 12:36:05;;;;;;;3.80;3.33;;;;;;;;;;5095905;28;20289;-70
2022/07/28 12:38:34;;;;;;;2.77;2.57;;;;;;;;;;5092817;28;20194;-72
2022/07/28 12:41:02;;;;;;;4.70;3.10;;;;;;;;;;5093104;28;20198;-72
2022/07/28 12:43:30;;;;;;;4.13;3.40;;;;;;;;;;5092641;28;20194;-72
2022/07/28 12:45:57;;;;;;;2.90;2.70;;;;;;;;;;5092329;28;20198;-73
2022/07/28 12:48:25;;;;;;;4.38;2.45;;;;;;;;;;5092396;28;20200;-72
2022/07/28 12:50:52;;;;;;;3.60;2.87;;;;;;;;;;5092815;28;20276;-72
2022/07/28 12:53:21;;;;;;;2.83;2.63;;;;;;;;;;5092752;28;20194;-71
2022/07/28 12:55:50;;;;;;;2.78;2.58;;;;;;;;;;5092152;28;20190;-71
2022/07/28 12:58:25;;;;;;;3.07;2.87;;;;;;;;;;5092124;28;20191;-73
2022/07/28 13:00:53;;;;;;;3.17;2.80;;;;;;;;;;5100107;28;20225;-72
2022/07/28 13:03:22;;;;;;;2.90;2.70;;;;;;;;;;5102851;28;20269;-71
2022/07/28 13:06:02;;;;;;;3.08;2.88;;;;;;;;;;5109512;28;20198;-72
2022/07/28 13:08:37;;;;;;;2.53;2.22;;;;;;;;;;5095922;28;20198;-72
2022/07/28 13:11:06;;;;;;;3.15;2.95;;;;;;;;;;5093744;28;20194;-71
2022/07/28 13:13:45;;;;;;;3.75;3.08;;;;;;;;;;5079975;28;20568;-71
2022/07/28 13:16:12;;;;;;;2.97;2.78;;;;;;;;;;5092871;28;20216;-71
2022/07/28 13:18:40;;;;;;;3.47;3.17;;;;;;;;;;5091629;28;20205;-70
2022/07/28 13:21:07;;;;;;;3.35;3.03;;;;;;;;;;5092528;28;20281;-71
2022/07/28 13:23:34;;;;;;;3.13;2.88;;;;;;;;;;5091632;28;20197;-69
2022/07/28 13:26:02;;;;;;;3.83;3.33;;;;;;;;;;5092286;28;20202;-71
2022/07/28 13:28:30;;;;;;;2.97;2.67;;;;;;;;;;5092267;28;20198;-71
2022/07/28 13:30:57;;;;;;;2.88;2.53;;;;;;;;;;5091804;28;20634;-71
2022/07/28 13:33:25;;;;;;;2.78;2.58;;;;;;;;;;5092238;28;20194;-73
2022/07/28 13:35:52;;;;;;;3.20;3.00;;;;;;;;;;5094625;28;20179;-71
2022/07/28 13:38:20;;;;;;;2.90;2.70;;;;;;;;;;5091605;28;20204;-72
2022/07/28 13:40:47;;;;;;;3.15;2.95;;;;;;;;;;5091419;28;20198;-71
2022/07/28 13:43:14;;;;;;;3.13;2.92;;;;;;;;;;5092065;28;20190;-72
2022/07/28 13:45:42;;;;;;;3.55;3.30;;;;;;;;;;5091392;28;20284;-71
2022/07/28 13:48:10;;;;;;;3.63;3.33;;;;;;;;;;5091281;28;20554;-71
2022/07/28 13:50:37;;;;;;;3.30;3.10;;;;;;;;;;5091232;28;20222;-71
2022/07/28 13:53:04;;;;;;;3.28;3.08;;;;;;;;;;5091790;28;20285;-69
2022/07/28 13:55:31;;;;;;;3.38;2.85;;;;;;;;;;5091719;28;20198;-71
2022/07/28 13:57:58;;;;;;;3.17;2.95;;;;;;;;;;5090944;28;20218;-72
2022/07/28 14:00:26;;;;;;;3.08;2.88;;;;;;;;;;5091488;28;20200;-71
2022/07/28 14:02:54;;;;;;;3.78;3.47;;;;;;;;;;5090880;28;20281;-72
2022/07/28 14:05:21;;;;;;;3.13;2.85;;;;;;;;;;5095674;28;20662;-72
2022/07/28 14:07:49;;;;;;;2.90;2.70;;;;;;;;;;5097660;28;20206;-70
2022/07/28 14:10:16;;;;;;;2.72;2.53;;;;;;;;;;5092019;28;20251;-71
2022/07/28 14:12:43;;;;;;;2.60;2.40;;;;;;;;;;5094974;28;20193;-72
2022/07/28 14:15:10;;;;;;;3.08;2.78;;;;;;;;;;5095389;28;20194;-73
2022/07/28 14:17:39;;;;;;;3.38;3.08;;;;;;;;;;5094405;28;20222;-72
2022/07/28 14:20:08;;;;;;;3.17;2.88;;;;;;;;;;5095628;28;20198;-72
2022/07/28 14:22:35;;;;;;;3.08;2.88;;;;;;;;;;5094602;28;20663;-71
2022/07/28 14:25:02;;;;;;;3.53;3.25;;;;;;;;;;5095333;28;20194;-73
2022/07/28 14:27:29;;;;;;;3.17;2.97;;;;;;;;;;5095051;28;20254;-71
2022/07/28 14:29:57;;;;;;;3.88;2.88;;;;;;;;;;5094808;28;20198;-73
2022/07/28 14:32:24;;;;;;;3.20;2.92;;;;;;;;;;5094928;28;20194;-72
2022/07/28 14:34:51;;;;;;;3.47;3.17;;;;;;;;;;5094752;28;20224;-69
2022/07/28 14:37:20;;;;;;;3.17;2.90;;;;;;;;;;5097395;28;20309;-73